| time (UTC) | temp C | wind direction | speed KPH | gust KPH | rain 1hr cm | rain 24hr cm | rain mn cm | humidity % | barometer mb |
| 20260906123517 | 21 | 23 | 1.6 | 3.2 | 0.00 | 0.00 | 0.00 | 91 | 1019.0 |
| 20260906122517 | 20 | 23 | 1.6 | 6.4 | 0.00 | 0.00 | 0.00 | 93 | 1019.1 |
| 20260906121517 | 20 | 23 | 1.6 | 6.4 | 0.00 | 0.00 | 0.00 | 94 | 1018.8 |
| 20260906120517 | 20 | 23 | 1.6 | 6.4 | 0.00 | 0.00 | 0.00 | 94 | 1018.6 |
| 20260906115517 | 19 | 0.0 | 4.8 | 0.00 | 0.00 | 0.00 | 94 | 1018.6 | |
| 20260906114517 | 19 | 0.0 | 4.8 | 0.00 | 0.00 | 0.00 | 94 | 1018.3 | |
| 20260906113518 | 19 | 23 | 1.6 | 4.8 | 0.00 | 0.00 | 0.00 | 94 | 1018.2 |
| 20260906112517 | 19 | 23 | 1.6 | 3.2 | 0.00 | 0.00 | 0.00 | 94 | 1018.0 |
| 20260906111517 | 19 | 338 | 1.6 | 8.0 | 0.00 | 0.00 | 0.00 | 94 | 1017.9 |
| 20260906110517 | 20 | 23 | 1.6 | 8.0 | 0.00 | 0.00 | 0.00 | 94 | 1017.8 |
| 20260906105537 | 20 | 0 | 3.2 | 8.0 | 0.00 | 0.00 | 0.00 | 94 | 1017.9 |
| 20260906104537 | 20 | 0 | 1.6 | 4.8 | 0.00 | 0.00 | 0.00 | 93 | 1017.7 |
| 20260906103517 | 20 | 23 | 1.6 | 8.0 | 0.00 | 0.00 | 0.00 | 93 | 1017.7 |
| 20260906102517 | 20 | 23 | 1.6 | 8.0 | 0.00 | 0.00 | 0.00 | 93 | 1017.5 |
| 20260906101517 | 20 | 338 | 1.6 | 6.4 | 0.00 | 0.00 | 0.00 | 93 | 1017.5 |
| 20260906100518 | 20 | 23 | 1.6 | 4.8 | 0.00 | 0.00 | 0.00 | 93 | 1017.6 |
| 20260906095557 | 20 | 23 | 1.6 | 4.8 | 0.00 | 0.00 | 0.00 | 93 | 1017.4 |
| 20260906094517 | 20 | 23 | 1.6 | 4.8 | 0.00 | 0.00 | 0.00 | 93 | 1017.3 |
| 20260906093517 | 20 | 0 | 1.6 | 4.8 | 0.00 | 0.00 | 0.00 | 93 | 1017.3 |
| 20260906092517 | 20 | 338 | 3.2 | 6.4 | 0.00 | 0.00 | 0.00 | 92 | 1017.3 |
| 20260906091517 | 20 | 23 | 3.2 | 6.4 | 0.00 | 0.00 | 0.00 | 92 | 1017.4 |
| 20260906090517 | 20 | 23 | 1.6 | 6.4 | 0.00 | 0.05 | 0.00 | 92 | 1017.3 |
| 20260906085517 | 20 | 23 | 1.6 | 6.4 | 0.00 | 0.05 | 0.00 | 92 | 1017.2 |
| 20260906084516 | 20 | 23 | 3.2 | 8.0 | 0.00 | 0.05 | 0.00 | 92 | 1017.2 |
| 20260906083516 | 21 | 23 | 1.6 | 8.0 | 0.00 | 0.05 | 0.00 | 91 | 1017.2 |
| 20260906082516 | 21 | 0 | 3.2 | 6.4 | 0.00 | 0.05 | 0.00 | 91 | 1017.2 |
| 20260906081536 | 21 | 23 | 1.6 | 6.4 | 0.00 | 0.05 | 0.00 | 91 | 1017.3 |
| 20260906080517 | 21 | 23 | 1.6 | 6.4 | 0.00 | 0.05 | 0.00 | 91 | 1017.3 |
| 20260906075516 | 21 | 23 | 1.6 | 3.2 | 0.00 | 0.05 | 0.00 | 90 | 1017.4 |
| 20260906074545 | 21 | 23 | 1.6 | 4.8 | 0.00 | 0.05 | 0.00 | 90 | 1017.4 |
| 20260906073540 | 21 | 68 | 3.2 | 6.4 | 0.00 | 0.05 | 0.00 | 89 | 1017.4 |
| 20260906072516 | 21 | 23 | 1.6 | 6.4 | 0.00 | 0.05 | 0.00 | 89 | 1017.4 |
| 20260906071516 | 21 | 23 | 3.2 | 8.0 | 0.00 | 0.05 | 0.00 | 89 | 1017.5 |
| 20260906070516 | 21 | 45 | 3.2 | 6.4 | 0.00 | 0.05 | 0.00 | 88 | 1017.6 |
| 20260906065537 | 21 | 23 | 1.6 | 8.0 | 0.00 | 0.05 | 0.00 | 88 | 1017.6 |
| 20260906064516 | 21 | 0.0 | 3.2 | 0.00 | 0.05 | 0.00 | 87 | 1017.6 | |
| 20260906063516 | 21 | 23 | 3.2 | 8.0 | 0.00 | 0.05 | 0.00 | 87 | 1017.5 |
| 20260906062517 | 22 | 23 | 3.2 | 6.4 | 0.00 | 0.05 | 0.00 | 87 | 1017.6 |
| 20260906061516 | 22 | 0.0 | 3.2 | 0.00 | 0.05 | 0.00 | 87 | 1017.7 | |
| 20260906060517 | 22 | 23 | 3.2 | 6.4 | 0.00 | 0.05 | 0.00 | 87 | 1017.6 |
| 20260906055516 | 22 | 23 | 3.2 | 6.4 | 0.00 | 0.05 | 0.00 | 87 | 1017.5 |
| 20260906054517 | 22 | 23 | 3.2 | 8.0 | 0.00 | 0.05 | 0.00 | 86 | 1017.3 |
| 20260906053517 | 22 | 23 | 3.2 | 6.4 | 0.00 | 0.05 | 0.00 | 86 | 1017.3 |
| 20260906052517 | 22 | 68 | 1.6 | 6.4 | 0.00 | 0.05 | 0.00 | 86 | 1017.4 |
| 20260906051536 | 22 | 90 | 1.6 | 6.4 | 0.00 | 0.05 | 0.00 | 85 | 1017.3 |
| 20260906050516 | 22 | 68 | 1.6 | 6.4 | 0.00 | 0.05 | 0.00 | 85 | 1017.1 |
| 20260906045517 | 22 | 23 | 1.6 | 4.8 | 0.00 | 0.05 | 0.05 | 85 | 1017.1 |
| 20260906044517 | 22 | 23 | 3.2 | 6.4 | 0.00 | 0.05 | 0.05 | 84 | 1017.2 |
| 20260906043517 | 22 | 23 | 3.2 | 4.8 | 0.00 | 0.05 | 0.05 | 84 | 1016.9 |
| 20260906042517 | 22 | 45 | 3.2 | 8.0 | 0.00 | 0.05 | 0.05 | 83 | 1016.8 |
| 20260906041517 | 22 | 23 | 3.2 | 6.4 | 0.00 | 0.05 | 0.05 | 82 | 1016.6 |
| 20260906040517 | 22 | 23 | 3.2 | 6.4 | 0.00 | 0.05 | 0.05 | 82 | 1016.6 |
| 20260906035517 | 22 | 45 | 3.2 | 8.0 | 0.00 | 0.05 | 0.05 | 82 | 1016.3 |
| 20260906034517 | 22 | 0 | 1.6 | 8.0 | 0.00 | 0.05 | 0.05 | 82 | 1016.3 |
| 20260906033517 | 22 | 113 | 3.2 | 8.0 | 0.00 | 0.05 | 0.05 | 82 | 1016.3 |
| 20260906032537 | 22 | 113 | 3.2 | 14.5 | 0.00 | 0.05 | 0.05 | 82 | 1016.3 |
| 20260906031516 | 22 | 90 | 6.4 | 19.3 | 0.00 | 0.05 | 0.05 | 82 | 1016.3 |
| 20260906030517 | 22 | 113 | 3.2 | 11.3 | 0.00 | 0.05 | 0.05 | 82 | 1016.2 |
| 20260906025517 | 22 | 90 | 4.8 | 9.7 | 0.00 | 0.05 | 0.05 | 82 | 1016.1 |
| 20260906024537 | 22 | 90 | 8.0 | 16.1 | 0.00 | 0.05 | 0.05 | 82 | 1016.2 |
| 20260906023537 | 22 | 23 | 3.2 | 9.7 | 0.00 | 0.05 | 0.05 | 82 | 1016.1 |
| 20260906022516 | 22 | 90 | 4.8 | 12.9 | 0.00 | 0.05 | 0.05 | 83 | 1016.1 |
| 20260906021517 | 22 | 68 | 4.8 | 12.9 | 0.00 | 0.05 | 0.05 | 83 | 1016.1 |
| 20260906020537 | 22 | 90 | 3.2 | 16.1 | 0.00 | 0.05 | 0.05 | 83 | 1016.1 |
| 20260906015517 | 22 | 45 | 4.8 | 12.9 | 0.00 | 0.05 | 0.05 | 82 | 1016.0 |
| 20260906014516 | 22 | 23 | 4.8 | 16.1 | 0.00 | 0.05 | 0.05 | 82 | 1016.2 |
| 20260906013537 | 22 | 23 | 4.8 | 11.3 | 0.00 | 0.05 | 0.05 | 82 | 1016.2 |
| 20260906012517 | 22 | 0 | 4.8 | 11.3 | 0.00 | 0.05 | 0.05 | 82 | 1016.0 |
| 20260906011518 | 22 | 23 | 4.8 | 9.7 | 0.00 | 0.05 | 0.05 | 82 | 1016.0 |
| 20260906010517 | 22 | 23 | 4.8 | 16.1 | 0.00 | 0.05 | 0.05 | 83 | 1016.0 |
| 20260906005519 | 22 | 90 | 3.2 | 9.7 | 0.00 | 0.05 | 0.05 | 83 | 1016.0 |
| 20260906004516 | 23 | 68 | 3.2 | 12.9 | 0.00 | 0.05 | 0.05 | 82 | 1015.9 |
| 20260906003517 | 23 | 68 | 3.2 | 14.5 | 0.00 | 0.05 | 0.05 | 81 | 1015.8 |
| 20260906002520 | 23 | 45 | 6.4 | 16.1 | 0.00 | 0.05 | 0.05 | 80 | 1015.6 |
| 20260906001517 | 24 | 23 | 4.8 | 12.9 | 0.00 | 0.05 | 0.05 | 79 | 1015.5 |
| 20260906000557 | 25 | 45 | 4.8 | 11.3 | 0.00 | 0.05 | 0.05 | 78 | 1015.3 |
| 20260905235536 | 25 | 90 | 6.4 | 17.7 | 0.00 | 0.05 | 0.05 | 77 | 1015.0 |
| 20260905234517 | 25 | 23 | 3.2 | 12.9 | 0.00 | 0.05 | 0.05 | 76 | 1014.8 |
| 20260905233516 | 26 | 45 | 4.8 | 12.9 | 0.00 | 0.05 | 0.05 | 75 | 1014.9 |
| 20260905232537 | 26 | 45 | 8.0 | 16.1 | 0.00 | 0.05 | 0.05 | 73 | 1014.9 |
| 20260905231517 | 26 | 23 | 4.8 | 11.3 | 0.00 | 0.05 | 0.05 | 72 | 1014.9 |
| 20260905230516 | 27 | 90 | 4.8 | 17.7 | 0.00 | 0.05 | 0.05 | 70 | 1014.8 |
| 20260905225516 | 27 | 23 | 4.8 | 12.9 | 0.00 | 0.05 | 0.05 | 68 | 1014.6 |
| 20260905224516 | 28 | 45 | 6.4 | 14.5 | 0.00 | 0.05 | 0.05 | 66 | 1014.5 |
| 20260905223517 | 28 | 45 | 6.4 | 16.1 | 0.00 | 0.05 | 0.05 | 68 | 1014.4 |
| 20260905222517 | 28 | 0 | 4.8 | 8.0 | 0.00 | 0.05 | 0.05 | 67 | 1014.5 |
| 20260905221537 | 28 | 45 | 4.8 | 11.3 | 0.00 | 0.05 | 0.05 | 66 | 1014.4 |
| 20260905220516 | 28 | 23 | 3.2 | 6.4 | 0.00 | 0.05 | 0.05 | 68 | 1014.4 |
| 20260905215516 | 28 | 90 | 4.8 | 12.9 | 0.00 | 0.05 | 0.05 | 68 | 1014.3 |
| 20260905214517 | 28 | 23 | 6.4 | 14.5 | 0.00 | 0.05 | 0.05 | 67 | 1014.5 |
| 20260905213516 | 28 | 45 | 6.4 | 16.1 | 0.00 | 0.05 | 0.05 | 70 | 1014.5 |
| 20260905212516 | 27 | 23 | 3.2 | 6.4 | 0.00 | 0.05 | 0.05 | 71 | 1014.5 |
| 20260905211516 | 28 | 45 | 3.2 | 11.3 | 0.00 | 0.05 | 0.05 | 70 | 1014.6 |
| 20260905210516 | 28 | 0 | 4.8 | 12.9 | 0.00 | 0.05 | 0.05 | 70 | 1014.5 |
| 20260905205516 | 27 | 23 | 4.8 | 12.9 | 0.00 | 0.05 | 0.05 | 72 | 1014.7 |
| 20260905204516 | 27 | 23 | 6.4 | 12.9 | 0.00 | 0.05 | 0.05 | 71 | 1014.8 |
| 20260905203516 | 27 | 23 | 4.8 | 12.9 | 0.00 | 0.05 | 0.05 | 72 | 1015.0 |
| 20260905202521 | 27 | 23 | 6.4 | 16.1 | 0.00 | 0.05 | 0.05 | 73 | 1014.9 |
| 20260905201516 | 27 | 90 | 4.8 | 9.7 | 0.00 | 0.05 | 0.05 | 72 | 1014.9 |
| 20260905200516 | 27 | 45 | 6.4 | 14.5 | 0.00 | 0.05 | 0.05 | 72 | 1015.0 |
| 20260905195520 | 27 | 45 | 6.4 | 14.5 | 0.00 | 0.05 | 0.05 | 71 | 1015.0 |
| 20260905194516 | 28 | 0 | 6.4 | 16.1 | 0.00 | 0.05 | 0.05 | 71 | 1014.9 |
| 20260905193516 | 28 | 0 | 6.4 | 16.1 | 0.00 | 0.05 | 0.05 | 70 | 1014.8 |
| 20260905192516 | 28 | 23 | 8.0 | 17.7 | 0.00 | 0.05 | 0.05 | 69 | 1014.7 |
| 20260905191537 | 28 | 23 | 4.8 | 11.3 | 0.00 | 0.05 | 0.05 | 68 | 1014.8 |
| 20260905190516 | 29 | 45 | 6.4 | 19.3 | 0.00 | 0.05 | 0.05 | 68 | 1014.9 |
| 20260905185518 | 29 | 23 | 8.0 | 17.7 | 0.00 | 0.05 | 0.05 | 69 | 1014.9 |
| 20260905184518 | 29 | 23 | 8.0 | 16.1 | 0.00 | 0.05 | 0.05 | 68 | 1014.9 |
| 20260905183516 | 29 | 23 | 6.4 | 11.3 | 0.00 | 0.05 | 0.05 | 71 | 1015.0 |
| 20260905182516 | 29 | 45 | 6.4 | 12.9 | 0.00 | 0.05 | 0.05 | 70 | 1014.9 |
| 20260905181516 | 28 | 338 | 6.4 | 14.5 | 0.00 | 0.05 | 0.05 | 70 | 1015.0 |
| 20260905180516 | 29 | 23 | 6.4 | 16.1 | 0.00 | 0.05 | 0.05 | 70 | 1014.9 |
| 20260905175516 | 29 | 68 | 3.2 | 6.4 | 0.00 | 0.05 | 0.05 | 71 | 1014.9 |
| 20260905174516 | 28 | 45 | 3.2 | 8.0 | 0.00 | 0.05 | 0.05 | 72 | 1014.8 |
| 20260905173516 | 28 | 0 | 4.8 | 12.9 | 0.00 | 0.05 | 0.05 | 71 | 1014.9 |
| 20260905172517 | 29 | 23 | 4.8 | 8.0 | 0.00 | 0.05 | 0.05 | 69 | 1014.9 |
| 20260905171516 | 29 | 45 | 4.8 | 14.5 | 0.00 | 0.05 | 0.05 | 71 | 1015.0 |
| 20260905170536 | 29 | 45 | 4.8 | 12.9 | 0.00 | 0.05 | 0.05 | 72 | 1015.1 |
| 20260905165516 | 29 | 338 | 4.8 | 12.9 | 0.00 | 0.05 | 0.05 | 70 | 1015.1 |
| 20260905164516 | 29 | 23 | 3.2 | 12.9 | 0.00 | 0.05 | 0.05 | 74 | 1015.2 |
| 20260905163516 | 28 | 90 | 4.8 | 14.5 | 0.00 | 0.05 | 0.05 | 74 | 1015.2 |
| 20260905162516 | 28 | 0 | 4.8 | 12.9 | 0.00 | 0.05 | 0.05 | 74 | 1015.1 |
| 20260905161516 | 28 | 45 | 6.4 | 14.5 | 0.00 | 0.05 | 0.05 | 74 | 1015.2 |
| 20260905160516 | 28 | 45 | 4.8 | 9.7 | 0.00 | 0.05 | 0.05 | 74 | 1015.2 |
| 20260905155516 | 28 | 23 | 4.8 | 12.9 | 0.00 | 0.05 | 0.05 | 74 | 1015.1 |
| 20260905154516 | 28 | 23 | 6.4 | 12.9 | 0.00 | 0.05 | 0.05 | 75 | 1015.0 |
| 20260905153536 | 27 | 338 | 3.2 | 8.0 | 0.00 | 0.05 | 0.05 | 78 | 1015.0 |
| 20260905152516 | 27 | 45 | 4.8 | 11.3 | 0.00 | 0.05 | 0.05 | 78 | 1014.9 |
| 20260905151516 | 27 | 338 | 3.2 | 12.9 | 0.00 | 0.05 | 0.05 | 79 | 1014.8 |
| 20260905150517 | 26 | 45 | 3.2 | 8.0 | 0.00 | 0.05 | 0.05 | 82 | 1014.7 |
| 20260905145516 | 26 | 45 | 4.8 | 11.3 | 0.00 | 0.05 | 0.05 | 84 | 1014.6 |
| 20260905144516 | 25 | 23 | 6.4 | 12.9 | 0.00 | 0.05 | 0.05 | 84 | 1014.5 |
| 20260905143517 | 25 | 90 | 4.8 | 11.3 | 0.00 | 0.05 | 0.05 | 86 | 1014.6 |
| 20260905142516 | 25 | 23 | 3.2 | 9.7 | 0.00 | 0.05 | 0.05 | 89 | 1014.5 |
| 20260905141516 | 25 | 23 | 6.4 | 16.1 | 0.00 | 0.05 | 0.05 | 88 | 1014.5 |
| 20260905140516 | 25 | 45 | 4.8 | 12.9 | 0.00 | 0.05 | 0.05 | 87 | 1014.4 |
| 20260905135516 | 25 | 23 | 4.8 | 9.7 | 0.00 | 0.05 | 0.05 | 86 | 1014.2 |
| 20260905134517 | 26 | 45 | 4.8 | 14.5 | 0.00 | 0.05 | 0.05 | 84 | 1014.2 |
| 20260905133516 | 26 | 45 | 3.2 | 8.0 | 0.00 | 0.05 | 0.05 | 85 | 1014.2 |
| 20260905132516 | 26 | 338 | 4.8 | 9.7 | 0.00 | 0.05 | 0.05 | 84 | 1014.3 |
| 20260905131516 | 26 | 23 | 3.2 | 8.0 | 0.00 | 0.05 | 0.05 | 86 | 1014.6 |
| 20260905130536 | 26 | 23 | 3.2 | 6.4 | 0.00 | 0.05 | 0.05 | 87 | 1014.1 |
| 20260905125536 | 25 | 23 | 3.2 | 12.9 | 0.00 | 0.05 | 0.05 | 88 | 1013.9 |
| 20260905124516 | 25 | 0 | 1.6 | 3.2 | 0.00 | 0.05 | 0.05 | 91 | 1013.8 |